createdAt,value
2023-02-13T00:00:58.980Z,49.70
2023-02-13T00:03:27.265Z,49.70
2023-02-13T00:05:55.164Z,49.70
2023-02-13T00:08:23.020Z,49.80
2023-02-13T00:10:51.052Z,49.80
2023-02-13T00:13:20.298Z,49.70
2023-02-13T00:15:56.687Z,49.70
2023-02-13T00:18:24.612Z,49.70
2023-02-13T00:20:59.649Z,49.70
2023-02-13T00:23:27.722Z,49.70
2023-02-13T00:25:55.625Z,49.70
2023-02-13T00:28:25.098Z,49.80
2023-02-13T00:30:53.197Z,49.70
2023-02-13T00:33:21.102Z,49.80
2023-02-13T00:35:48.975Z,49.70
2023-02-13T00:38:16.835Z,49.80
2023-02-13T00:40:44.667Z,49.70
2023-02-13T00:43:12.468Z,49.70
2023-02-13T00:45:41.685Z,49.70
2023-02-13T00:48:09.589Z,49.70
2023-02-13T00:50:37.485Z,49.70
2023-02-13T00:53:05.334Z,49.80
2023-02-13T00:55:33.988Z,49.70
2023-02-13T00:58:01.825Z,49.70
2023-02-13T01:00:29.724Z,49.70
2023-02-13T01:02:58.984Z,50.40
2023-02-13T01:05:29.914Z,49.70
2023-02-13T01:07:57.912Z,49.70
2023-02-13T01:10:26.329Z,49.70
2023-02-13T01:12:54.820Z,49.70
2023-02-13T01:15:22.803Z,49.70
2023-02-13T01:17:50.682Z,49.70
2023-02-13T01:20:20.117Z,49.70
2023-02-13T01:22:47.973Z,49.80
2023-02-13T01:25:15.846Z,49.70
2023-02-13T01:27:43.778Z,49.70
2023-02-13T01:30:14.531Z,49.70
2023-02-13T01:32:43.598Z,49.70
2023-02-13T01:35:21.088Z,49.70
2023-02-13T01:37:50.450Z,49.70
2023-02-13T01:40:18.430Z,49.70
2023-02-13T01:42:46.406Z,49.70
2023-02-13T01:45:25.692Z,50.30
2023-02-13T01:47:57.370Z,49.70
2023-02-13T01:50:30.272Z,49.70
2023-02-13T01:53:05.349Z,49.70
2023-02-13T01:55:35.641Z,49.70
2023-02-13T01:58:08.199Z,49.70
2023-02-13T02:00:37.640Z,49.70
2023-02-13T02:03:14.585Z,49.70
2023-02-13T02:05:44.098Z,49.70
2023-02-13T02:08:15.352Z,49.70
2023-02-13T02:10:43.431Z,49.70
2023-02-13T02:13:13.734Z,49.70
2023-02-13T02:15:43.527Z,49.70
2023-02-13T02:18:16.367Z,49.70
2023-02-13T02:21:06.376Z,49.70
2023-02-13T02:24:24.640Z,49.70
2023-02-13T02:27:15.641Z,49.70
2023-02-13T02:30:08.141Z,49.70
2023-02-13T02:32:53.856Z,49.70
2023-02-13T02:35:30.362Z,49.70
2023-02-13T02:38:15.321Z,49.70
2023-02-13T02:40:55.401Z,49.70
2023-02-13T02:43:36.442Z,49.70
2023-02-13T02:46:12.924Z,49.70
2023-02-13T02:49:05.494Z,49.70
2023-02-13T02:51:42.361Z,49.70
2023-02-13T02:54:29.005Z,49.70
2023-02-13T02:57:01.295Z,49.70
2023-02-13T02:59:48.407Z,49.70
2023-02-13T03:02:34.636Z,49.70
2023-02-13T03:05:22.512Z,49.70
2023-02-13T03:07:50.651Z,49.70
2023-02-13T03:10:50.590Z,49.70
2023-02-13T03:13:32.628Z,49.70
2023-02-13T03:16:19.492Z,49.70
2023-02-13T03:19:08.886Z,49.70
2023-02-13T03:22:17.027Z,49.70
2023-02-13T03:24:51.516Z,49.70
2023-02-13T03:27:44.586Z,49.70
2023-02-13T03:30:22.734Z,49.70
2023-02-13T03:33:02.798Z,49.70
2023-02-13T03:35:55.838Z,49.70
2023-02-13T03:38:30.853Z,49.70
2023-02-13T03:41:20.293Z,49.70
2023-02-13T03:43:56.196Z,49.70
2023-02-13T03:46:27.094Z,49.70
2023-02-13T03:49:13.170Z,49.70
2023-02-13T03:51:45.467Z,49.70
2023-02-13T03:54:20.667Z,49.70
2023-02-13T03:57:09.258Z,49.70
2023-02-13T03:59:38.663Z,49.70
2023-02-13T04:02:12.435Z,49.70
2023-02-13T04:04:48.258Z,49.70
2023-02-13T04:07:29.407Z,49.70
2023-02-13T04:10:01.141Z,49.70
2023-02-13T04:12:39.254Z,49.70
2023-02-13T04:15:12.237Z,49.70
2023-02-13T04:17:44.428Z,50.30
2023-02-13T04:20:13.128Z,49.70
2023-02-13T04:22:44.079Z,49.70
2023-02-13T04:25:15.146Z,49.70
2023-02-13T04:27:43.386Z,49.70
2023-02-13T04:30:12.411Z,49.70
2023-02-13T04:32:40.303Z,49.70
2023-02-13T04:35:09.340Z,49.70
2023-02-13T04:37:37.185Z,49.60
2023-02-13T04:40:05.691Z,49.70
2023-02-13T04:42:34.910Z,49.70
2023-02-13T04:45:02.864Z,49.70
2023-02-13T04:47:30.793Z,49.70
2023-02-13T04:49:58.648Z,49.70
2023-02-13T04:52:26.499Z,49.70
2023-02-13T04:54:54.466Z,49.70
2023-02-13T04:57:22.340Z,49.60
2023-02-13T04:59:51.554Z,49.70
2023-02-13T05:02:19.427Z,49.70
2023-02-13T05:04:47.324Z,49.70
2023-02-13T05:07:15.257Z,49.60
2023-02-13T05:09:43.234Z,49.60
2023-02-13T05:12:11.085Z,49.60
2023-02-13T05:14:39.090Z,49.60
2023-02-13T05:17:08.382Z,49.60
2023-02-13T05:19:36.242Z,49.60
2023-02-13T05:22:21.438Z,49.60
2023-02-13T05:24:49.322Z,49.70
2023-02-13T05:27:17.231Z,49.60
2023-02-13T05:29:45.106Z,49.60
2023-02-13T05:32:14.349Z,49.60
2023-02-13T05:34:42.377Z,49.60
2023-02-13T05:37:10.222Z,49.60
2023-02-13T05:39:38.101Z,49.60
2023-02-13T05:42:06.390Z,49.60
2023-02-13T05:44:34.265Z,49.60
2023-02-13T05:47:02.155Z,49.60
2023-02-13T05:49:31.372Z,49.60
2023-02-13T05:51:59.290Z,49.60
2023-02-13T05:54:27.233Z,49.60
2023-02-13T05:56:55.104Z,49.60
2023-02-13T05:59:24.063Z,49.60
2023-02-13T06:01:52.596Z,49.60
2023-02-13T06:04:20.463Z,49.60
2023-02-13T06:06:49.684Z,49.60
2023-02-13T06:09:17.516Z,49.60
2023-02-13T06:11:45.399Z,49.60
2023-02-13T06:14:13.950Z,49.60
2023-02-13T06:16:41.997Z,49.60
2023-02-13T06:19:10.044Z,49.60
2023-02-13T06:21:38.975Z,49.60
2023-02-13T06:24:09.290Z,50.20
2023-02-13T06:26:37.379Z,49.60
2023-02-13T06:29:06.515Z,49.60
2023-02-13T06:31:34.811Z,49.60
2023-02-13T06:34:02.732Z,49.60
2023-02-13T06:36:30.687Z,49.60
2023-02-13T06:38:58.553Z,49.60
2023-02-13T06:41:27.781Z,49.60
2023-02-13T06:43:55.635Z,49.60
2023-02-13T06:46:23.564Z,49.60
2023-02-13T06:48:51.444Z,49.50
2023-02-13T06:51:19.315Z,49.60
2023-02-13T06:53:47.250Z,49.60
2023-02-13T06:56:15.103Z,49.60
2023-02-13T06:58:44.408Z,49.60
2023-02-13T07:01:12.478Z,49.60
2023-02-13T07:03:40.384Z,49.60
2023-02-13T07:06:08.408Z,49.60
2023-02-13T07:08:36.287Z,49.60
2023-02-13T07:11:04.164Z,49.60
2023-02-13T07:13:32.044Z,49.60
2023-02-13T07:16:03.063Z,49.60
2023-02-13T07:18:30.927Z,49.60
2023-02-13T07:20:59.838Z,49.60
2023-02-13T07:23:27.833Z,49.60
2023-02-13T07:25:55.730Z,49.60
2023-02-13T07:28:23.665Z,49.60
2023-02-13T07:30:51.629Z,49.60
2023-02-13T07:33:25.551Z,49.60
2023-02-13T07:35:53.809Z,49.60
2023-02-13T07:38:21.826Z,49.60
2023-02-13T07:40:49.737Z,49.60
2023-02-13T07:43:17.661Z,49.60
2023-02-13T07:45:46.946Z,49.60
2023-02-13T07:48:14.843Z,49.60
2023-02-13T07:50:44.032Z,49.60
2023-02-13T07:53:11.952Z,49.60
2023-02-13T07:55:39.773Z,49.60
2023-02-13T07:58:07.680Z,49.60
2023-02-13T08:00:35.628Z,49.60
2023-02-13T08:03:03.945Z,49.50
2023-02-13T08:05:33.731Z,49.60
2023-02-13T08:08:03.021Z,49.60
2023-02-13T08:10:48.621Z,49.60
2023-02-13T08:13:17.532Z,49.60
2023-02-13T08:15:45.461Z,49.60
2023-02-13T08:18:13.489Z,49.60
2023-02-13T08:20:41.348Z,49.60
2023-02-13T08:23:12.266Z,49.60
2023-02-13T08:25:40.539Z,49.60
2023-02-13T08:28:08.666Z,49.50
2023-02-13T08:30:36.765Z,49.50
2023-02-13T08:33:04.758Z,49.60
2023-02-13T08:35:32.832Z,49.60
2023-02-13T08:38:03.294Z,49.60
2023-02-13T08:40:32.772Z,49.50
2023-02-13T08:43:02.378Z,49.50
2023-02-13T08:45:30.914Z,49.50
2023-02-13T08:47:59.617Z,49.50
2023-02-13T08:50:28.643Z,49.60
2023-02-13T08:52:56.547Z,49.60
2023-02-13T08:55:24.409Z,49.60
2023-02-13T08:57:53.643Z,49.50
2023-02-13T09:00:22.500Z,49.60
2023-02-13T09:02:50.390Z,49.60
2023-02-13T09:05:18.404Z,49.60
2023-02-13T09:07:46.259Z,49.60
2023-02-13T09:10:14.152Z,49.60
2023-02-13T09:12:42.115Z,49.60
2023-02-13T09:15:11.815Z,49.60
2023-02-13T09:17:39.985Z,49.60
2023-02-13T09:20:08.878Z,49.60
2023-02-13T09:22:36.778Z,49.60
2023-02-13T09:25:04.924Z,49.60
2023-02-13T09:27:33.609Z,49.60
2023-02-13T09:30:01.682Z,49.60
2023-02-13T09:32:31.009Z,49.60
2023-02-13T09:34:58.889Z,49.60
2023-02-13T09:37:27.067Z,49.60
2023-02-13T09:39:54.972Z,49.60
2023-02-13T09:42:27.183Z,49.60
2023-02-13T09:44:58.260Z,49.60
2023-02-13T09:47:32.689Z,49.60
2023-02-13T09:50:04.385Z,49.60
2023-02-13T09:52:36.808Z,49.70
2023-02-13T09:55:12.095Z,49.60
2023-02-13T09:57:45.122Z,49.70
2023-02-13T10:00:17.952Z,49.60
2023-02-13T10:03:14.835Z,49.70
2023-02-13T10:05:52.721Z,49.60
2023-02-13T10:08:33.753Z,49.70
2023-02-13T10:11:08.312Z,49.70
2023-02-13T10:13:53.119Z,49.70
2023-02-13T10:16:24.602Z,49.70
2023-02-13T10:18:58.325Z,49.70
2023-02-13T10:21:31.349Z,49.60
2023-02-13T10:24:05.956Z,50.40
2023-02-13T10:26:45.896Z,49.70
2023-02-13T10:29:36.114Z,49.70
2023-02-13T10:32:08.327Z,49.70
2023-02-13T10:34:43.153Z,49.70
2023-02-13T10:37:16.333Z,49.70
2023-02-13T10:39:46.803Z,49.80
2023-02-13T10:42:23.849Z,49.70
2023-02-13T10:45:00.756Z,49.70
2023-02-13T10:47:42.891Z,49.70
2023-02-13T10:50:23.703Z,49.80
2023-02-13T10:52:58.174Z,49.80
2023-02-13T10:55:52.271Z,49.70
2023-02-13T10:58:23.299Z,49.70
2023-02-13T11:00:57.422Z,49.80
2023-02-13T11:03:27.143Z,49.80
2023-02-13T11:05:59.143Z,49.70
2023-02-13T11:08:31.541Z,49.70
2023-02-13T11:10:59.474Z,49.80
2023-02-13T11:13:29.866Z,49.80
2023-02-13T11:16:01.605Z,49.80
2023-02-13T11:18:32.067Z,49.80
2023-02-13T11:21:04.117Z,49.80
2023-02-13T11:23:38.853Z,49.80
2023-02-13T11:26:09.144Z,49.80
2023-02-13T11:28:40.400Z,49.80
2023-02-13T11:31:14.349Z,49.80
2023-02-13T11:33:43.117Z,49.80
2023-02-13T11:36:16.630Z,49.80
2023-02-13T11:38:44.765Z,49.80
2023-02-13T11:41:14.698Z,49.90
2023-02-13T11:43:48.372Z,49.80
2023-02-13T11:46:21.054Z,49.80
2023-02-13T11:49:02.346Z,49.80
2023-02-13T11:51:40.588Z,50.50
2023-02-13T11:54:30.328Z,49.90
2023-02-13T11:57:04.465Z,49.90
2023-02-13T11:59:40.031Z,49.90
2023-02-13T12:02:19.941Z,49.90
2023-02-13T12:04:49.261Z,49.90
2023-02-13T12:07:23.211Z,49.90
2023-02-13T12:09:56.455Z,49.90
2023-02-13T12:12:30.745Z,49.90
2023-02-13T12:14:59.319Z,49.90
2023-02-13T12:17:32.334Z,49.90
2023-02-13T12:20:01.437Z,49.90
2023-02-13T12:22:43.496Z,50.50
2023-02-13T12:25:46.543Z,49.90
2023-02-13T12:28:17.267Z,49.90
2023-02-13T12:31:15.179Z,49.90
2023-02-13T12:34:01.074Z,49.90
2023-02-13T12:36:37.272Z,49.90
2023-02-13T12:39:19.137Z,49.90
2023-02-13T12:42:01.474Z,50.00
2023-02-13T12:45:01.735Z,50.00
2023-02-13T12:47:32.199Z,50.00
2023-02-13T12:50:18.005Z,50.10
2023-02-13T12:52:57.798Z,50.10
2023-02-13T12:55:51.070Z,50.00
2023-02-13T12:58:42.484Z,50.00
2023-02-13T13:01:20.874Z,50.00
2023-02-13T13:03:57.099Z,50.00
2023-02-13T13:06:42.438Z,50.10
2023-02-13T13:09:26.827Z,50.10
2023-02-13T13:12:16.364Z,50.10
2023-02-13T13:14:52.364Z,50.00
2023-02-13T13:17:31.052Z,50.10
2023-02-13T13:20:09.429Z,50.00
2023-02-13T13:22:43.307Z,50.10
2023-02-13T13:25:19.848Z,50.10
2023-02-13T13:27:53.074Z,50.00
2023-02-13T13:30:26.016Z,50.10
2023-02-13T13:32:59.082Z,50.10
2023-02-13T13:35:27.272Z,50.10
2023-02-13T13:38:03.245Z,50.10
2023-02-13T13:40:40.907Z,50.10
2023-02-13T13:43:19.575Z,50.10
2023-02-13T13:45:52.556Z,50.10
2023-02-13T13:48:52.156Z,50.10
2023-02-13T13:51:20.778Z,50.10
2023-02-13T13:54:33.634Z,50.10
2023-02-13T13:57:09.429Z,50.10
2023-02-13T13:59:58.528Z,50.10
2023-02-13T14:02:48.619Z,50.10
2023-02-13T14:05:32.101Z,50.10
2023-02-13T14:08:01.549Z,50.10
2023-02-13T14:11:02.089Z,50.10
2023-02-13T14:13:35.520Z,50.10
2023-02-13T14:16:06.478Z,50.70
2023-02-13T14:18:35.434Z,50.10
2023-02-13T14:21:04.782Z,50.10
2023-02-13T14:23:53.289Z,50.10
2023-02-13T14:26:34.093Z,50.10
2023-02-13T14:29:28.436Z,50.10
2023-02-13T14:32:08.040Z,50.10
2023-02-13T14:34:38.797Z,50.10
2023-02-13T14:37:20.973Z,50.10
2023-02-13T14:40:29.262Z,50.10
2023-02-13T14:43:01.150Z,50.20
2023-02-13T14:45:33.262Z,50.10
2023-02-13T14:48:09.615Z,50.10
2023-02-13T14:50:46.859Z,50.10
2023-02-13T14:53:22.830Z,50.10
2023-02-13T14:55:57.731Z,50.10
2023-02-13T14:58:30.158Z,50.10
2023-02-13T15:01:03.120Z,50.10
2023-02-13T15:03:38.079Z,50.10
2023-02-13T15:06:13.035Z,50.10
2023-02-13T15:08:46.614Z,50.10
2023-02-13T15:11:35.728Z,50.10
2023-02-13T15:14:17.704Z,50.10
2023-02-13T15:16:48.012Z,50.20
2023-02-13T15:19:19.486Z,50.10
2023-02-13T15:21:53.910Z,50.10
2023-02-13T15:24:23.934Z,50.20
2023-02-13T15:27:03.248Z,50.10
2023-02-13T15:29:47.651Z,50.10
2023-02-13T15:32:21.717Z,50.10
2023-02-13T15:34:51.015Z,50.10
2023-02-13T15:37:24.417Z,50.10
2023-02-13T15:39:52.342Z,50.10
2023-02-13T15:42:20.480Z,50.10
2023-02-13T15:44:50.891Z,50.20
2023-02-13T15:47:24.449Z,50.10
2023-02-13T15:49:55.226Z,50.10
2023-02-13T15:52:28.037Z,50.10
2023-02-13T15:54:57.574Z,50.20
2023-02-13T15:57:27.210Z,50.20
2023-02-13T15:59:56.354Z,50.10
2023-02-13T16:02:29.588Z,50.20
2023-02-13T16:04:59.754Z,50.20
2023-02-13T16:07:27.649Z,50.10
2023-02-13T16:10:15.603Z,50.10
2023-02-13T16:12:47.631Z,50.20
2023-02-13T16:15:19.715Z,50.10
2023-02-13T16:17:49.187Z,50.20
2023-02-13T16:20:22.400Z,50.20
2023-02-13T16:22:52.665Z,50.10
2023-02-13T16:25:25.771Z,50.10
2023-02-13T16:27:56.500Z,50.20
2023-02-13T16:30:34.410Z,50.20
2023-02-13T16:33:29.151Z,50.10
2023-02-13T16:36:00.359Z,50.20
2023-02-13T16:38:31.872Z,50.10
2023-02-13T16:41:01.047Z,50.10
2023-02-13T16:43:51.665Z,50.20
2023-02-13T16:46:24.428Z,50.20
2023-02-13T16:49:18.538Z,50.10
2023-02-13T16:51:51.350Z,50.10
2023-02-13T16:54:27.519Z,50.20
2023-02-13T16:56:58.535Z,50.20
2023-02-13T16:59:34.490Z,50.10
2023-02-13T17:02:16.623Z,50.10
2023-02-13T17:04:46.248Z,50.20
2023-02-13T17:07:18.276Z,50.10
2023-02-13T17:09:46.162Z,50.10
2023-02-13T17:12:16.514Z,50.10
2023-02-13T17:14:44.483Z,50.10
2023-02-13T17:17:13.901Z,50.20
2023-02-13T17:19:41.843Z,50.10
2023-02-13T17:22:14.384Z,50.10
2023-02-13T17:24:43.617Z,50.10
2023-02-13T17:27:12.592Z,50.10
2023-02-13T17:29:40.454Z,50.10
2023-02-13T17:32:12.315Z,50.10
2023-02-13T17:34:40.171Z,50.10
2023-02-13T17:37:17.583Z,50.10
2023-02-13T17:39:47.695Z,50.10
2023-02-13T17:42:18.975Z,50.10
2023-02-13T17:44:47.406Z,50.10
2023-02-13T17:47:15.465Z,50.20
2023-02-13T17:49:43.546Z,50.10
2023-02-13T17:52:16.746Z,50.10
2023-02-13T17:54:46.076Z,50.10
2023-02-13T17:57:15.087Z,50.10
2023-02-13T17:59:43.484Z,50.10
2023-02-13T18:02:14.418Z,50.10
2023-02-13T18:04:42.401Z,50.10
2023-02-13T18:07:11.830Z,50.10
2023-02-13T18:09:40.170Z,50.10
2023-02-13T18:12:12.607Z,50.10
2023-02-13T18:14:40.459Z,50.10
2023-02-13T18:17:08.502Z,50.10
2023-02-13T18:19:37.467Z,50.10
2023-02-13T18:22:05.796Z,50.10
2023-02-13T18:24:34.713Z,50.10
2023-02-13T18:27:02.627Z,50.10
2023-02-13T18:29:31.971Z,50.10
2023-02-13T18:31:59.929Z,50.10
2023-02-13T18:34:27.833Z,50.10
2023-02-13T18:36:55.700Z,50.10
2023-02-13T18:39:23.673Z,50.10
2023-02-13T18:41:51.533Z,50.10
2023-02-13T18:44:28.199Z,50.00
2023-02-13T18:46:57.783Z,50.00
2023-02-13T18:49:26.158Z,50.00
2023-02-13T18:51:54.077Z,50.00
2023-02-13T18:54:22.212Z,50.00
2023-02-13T18:56:50.074Z,50.10
2023-02-13T18:59:18.542Z,50.10
2023-02-13T19:01:46.729Z,50.00
2023-02-13T19:04:16.065Z,50.00
2023-02-13T19:06:45.187Z,50.00
2023-02-13T19:09:13.206Z,50.00
2023-02-13T19:11:42.708Z,50.00
2023-02-13T19:14:13.628Z,50.10
2023-02-13T19:16:42.278Z,50.00
2023-02-13T19:19:10.198Z,50.10
2023-02-13T19:21:39.935Z,50.00
2023-02-13T19:24:09.644Z,50.10
2023-02-13T19:26:38.001Z,50.00
2023-02-13T19:29:05.926Z,50.00
2023-02-13T19:31:34.636Z,50.00
2023-02-13T19:34:02.702Z,50.00
2023-02-13T19:36:31.073Z,50.00
2023-02-13T19:39:03.733Z,50.10
2023-02-13T19:41:32.853Z,50.00
2023-02-13T19:44:01.200Z,50.00
2023-02-13T19:46:31.757Z,50.00
2023-02-13T19:49:00.000Z,50.00
2023-02-13T19:51:29.598Z,50.00
2023-02-13T19:53:58.051Z,50.00
2023-02-13T19:56:28.506Z,50.00
2023-02-13T19:58:56.626Z,50.00
2023-02-13T20:01:26.332Z,50.00
2023-02-13T20:03:54.677Z,50.00
2023-02-13T20:06:24.797Z,50.00
2023-02-13T20:08:53.307Z,50.00
2023-02-13T20:11:23.031Z,50.00
2023-02-13T20:13:56.424Z,50.00
2023-02-13T20:16:24.881Z,50.00
2023-02-13T20:18:53.024Z,50.00
2023-02-13T20:21:21.616Z,50.10
2023-02-13T20:23:51.648Z,50.00
2023-02-13T20:26:20.479Z,50.10
2023-02-13T20:28:48.927Z,50.00
2023-02-13T20:31:20.794Z,50.10
2023-02-13T20:33:49.517Z,50.10
2023-02-13T20:36:21.202Z,50.10
2023-02-13T20:38:50.272Z,50.00
2023-02-13T20:41:20.096Z,50.10
2023-02-13T20:43:48.093Z,50.00
2023-02-13T20:46:18.603Z,50.00
2023-02-13T20:48:48.163Z,50.00
2023-02-13T20:51:17.817Z,50.10
2023-02-13T20:53:46.623Z,50.10
2023-02-13T20:56:16.078Z,50.00
2023-02-13T20:58:44.991Z,50.00
2023-02-13T21:01:14.523Z,50.00
2023-02-13T21:03:44.373Z,50.00
2023-02-13T21:06:13.084Z,50.00
2023-02-13T21:08:43.988Z,50.00
2023-02-13T21:11:11.921Z,50.00
2023-02-13T21:13:40.197Z,50.10
2023-02-13T21:16:10.312Z,50.00
2023-02-13T21:18:38.933Z,50.00
2023-02-13T21:21:09.608Z,50.00
2023-02-13T21:23:38.397Z,50.00
2023-02-13T21:26:08.666Z,50.00
2023-02-13T21:28:37.800Z,50.00
2023-02-13T21:31:09.659Z,50.00
2023-02-13T21:33:37.569Z,50.00
2023-02-13T21:36:09.792Z,50.00
2023-02-13T21:38:39.102Z,50.00
2023-02-13T21:41:07.937Z,50.00
2023-02-13T21:43:37.888Z,50.00
2023-02-13T21:46:10.595Z,50.00
2023-02-13T21:48:38.894Z,50.00
2023-02-13T21:51:07.791Z,50.00
2023-02-13T21:53:37.132Z,50.00
2023-02-13T21:56:05.934Z,50.00
2023-02-13T21:58:34.382Z,50.00
2023-02-13T22:01:02.673Z,50.00
2023-02-13T22:03:30.730Z,50.00
2023-02-13T22:05:58.615Z,50.00
2023-02-13T22:08:26.551Z,50.00
2023-02-13T22:10:56.997Z,50.00
2023-02-13T22:13:25.238Z,50.00
2023-02-13T22:16:00.679Z,50.60
2023-02-13T22:18:30.984Z,50.00
2023-02-13T22:20:59.192Z,50.00
2023-02-13T22:23:27.752Z,50.00
2023-02-13T22:25:56.966Z,50.00
2023-02-13T22:28:24.827Z,50.00
2023-02-13T22:30:52.764Z,49.90
2023-02-13T22:33:20.745Z,50.00
2023-02-13T22:35:48.822Z,50.00
2023-02-13T22:38:16.736Z,50.00
2023-02-13T22:40:44.918Z,50.00
2023-02-13T22:43:14.150Z,50.00
2023-02-13T22:45:42.078Z,50.00
2023-02-13T22:48:10.097Z,50.00
2023-02-13T22:50:38.016Z,50.00
2023-02-13T22:53:05.898Z,50.00
2023-02-13T22:55:34.506Z,50.00
2023-02-13T22:58:02.370Z,49.90
2023-02-13T23:00:31.562Z,50.00
2023-02-13T23:02:59.409Z,50.60
2023-02-13T23:05:27.281Z,49.90
2023-02-13T23:07:55.116Z,50.00
2023-02-13T23:10:25.900Z,49.90
2023-02-13T23:12:52.780Z,49.90
2023-02-13T23:15:20.755Z,50.00
2023-02-13T23:18:07.486Z,49.90
2023-02-13T23:20:35.408Z,49.90
2023-02-13T23:23:04.855Z,50.00
2023-02-13T23:25:32.872Z,50.00
2023-02-13T23:28:00.739Z,49.80
2023-02-13T23:30:30.129Z,49.90
2023-02-13T23:33:00.597Z,49.80
2023-02-13T23:35:28.687Z,49.80
2023-02-13T23:37:56.582Z,49.90
2023-02-13T23:40:24.457Z,49.80
2023-02-13T23:42:52.293Z,49.90
2023-02-13T23:45:20.245Z,50.00
2023-02-13T23:47:48.133Z,49.90
2023-02-13T23:50:17.526Z,49.80
2023-02-13T23:52:45.424Z,49.80
2023-02-13T23:55:13.288Z,49.80
2023-02-13T23:57:41.902Z,49.90
